createdAt,value
2019-05-25T00:01:33.414Z,42.70
2019-05-25T00:04:01.822Z,42.80
2019-05-25T00:06:30.306Z,43.00
2019-05-25T00:08:59.082Z,43.20
2019-05-25T00:11:27.610Z,43.60
2019-05-25T00:13:56.036Z,43.40
2019-05-25T00:16:24.433Z,43.60
2019-05-25T00:18:52.830Z,43.80
2019-05-25T00:21:21.243Z,44.10
2019-05-25T00:23:49.648Z,44.20
2019-05-25T00:26:18.074Z,44.50
2019-05-25T00:28:46.462Z,44.50
2019-05-25T00:31:14.906Z,44.70
2019-05-25T00:33:43.370Z,44.90
2019-05-25T00:36:11.787Z,45.20
2019-05-25T00:38:40.188Z,45.30
2019-05-25T00:41:08.600Z,45.50
2019-05-25T00:43:37.009Z,45.70
2019-05-25T00:46:05.421Z,45.70
2019-05-25T00:48:33.831Z,45.90
2019-05-25T00:51:02.264Z,46.10
2019-05-25T00:53:30.732Z,46.40
2019-05-25T00:55:59.695Z,46.50
2019-05-25T00:58:28.104Z,46.80
2019-05-25T01:00:56.697Z,47.00
2019-05-25T01:03:25.134Z,47.10
2019-05-25T01:05:53.541Z,47.30
2019-05-25T01:08:21.937Z,47.40
2019-05-25T01:10:50.646Z,47.60
2019-05-25T01:13:19.060Z,47.70
2019-05-25T01:15:47.466Z,48.00
2019-05-25T01:18:15.887Z,48.10
2019-05-25T01:20:44.865Z,48.10
2019-05-25T01:23:13.334Z,48.40
2019-05-25T01:25:42.420Z,48.50
2019-05-25T01:28:10.927Z,48.60
2019-05-25T01:30:39.301Z,48.70
2019-05-25T01:33:07.713Z,48.80
2019-05-25T01:35:36.111Z,49.10
2019-05-25T01:38:04.578Z,49.20
2019-05-25T01:40:32.980Z,49.20
2019-05-25T01:43:01.394Z,49.30
2019-05-25T01:45:29.878Z,49.50
2019-05-25T01:47:58.291Z,49.70
2019-05-25T01:50:26.713Z,50.60
2019-05-25T01:52:55.121Z,49.90
2019-05-25T01:55:23.533Z,50.10
2019-05-25T01:57:51.948Z,50.20
2019-05-25T02:00:20.890Z,50.30
2019-05-25T02:02:49.313Z,50.60
2019-05-25T02:05:17.867Z,50.80
2019-05-25T02:07:46.274Z,51.00
2019-05-25T02:10:14.825Z,51.10
2019-05-25T02:12:43.251Z,51.30
2019-05-25T02:15:12.102Z,51.50
2019-05-25T02:17:40.515Z,51.70
2019-05-25T02:20:10.599Z,51.80
2019-05-25T02:22:39.005Z,52.40
2019-05-25T02:25:17.632Z,52.00
2019-05-25T02:27:41.247Z,52.30
2019-05-25T02:30:11.199Z,52.30
2019-05-25T02:32:39.739Z,52.40
2019-05-25T02:35:09.166Z,52.40
2019-05-25T02:37:37.587Z,53.10
2019-05-25T02:40:06.735Z,52.60
2019-05-25T02:42:35.161Z,52.80
2019-05-25T02:45:04.907Z,52.80
2019-05-25T02:47:33.315Z,53.80
2019-05-25T02:50:01.729Z,53.20
2019-05-25T02:52:30.122Z,53.40
2019-05-25T02:54:58.537Z,53.60
2019-05-25T02:57:26.940Z,53.80
2019-05-25T02:59:56.079Z,54.00
2019-05-25T03:02:24.579Z,54.10
2019-05-25T03:04:52.976Z,54.20
2019-05-25T03:07:21.640Z,54.40
2019-05-25T03:09:51.335Z,54.60
2019-05-25T03:12:20.016Z,54.80
2019-05-25T03:14:48.407Z,55.00
2019-05-25T03:17:16.817Z,55.20
2019-05-25T03:19:45.222Z,55.40
2019-05-25T03:22:13.618Z,55.60
2019-05-25T03:24:42.027Z,55.60
2019-05-25T03:27:10.442Z,55.90
2019-05-25T03:29:38.885Z,56.00
2019-05-25T03:32:07.276Z,56.20
2019-05-25T03:34:35.763Z,56.40
2019-05-25T03:37:04.612Z,56.60
2019-05-25T03:39:33.287Z,56.80
2019-05-25T03:42:01.680Z,57.00
2019-05-25T03:44:30.097Z,57.30
2019-05-25T03:46:58.514Z,57.40
2019-05-25T03:49:26.921Z,57.60
2019-05-25T03:51:55.325Z,58.20
2019-05-25T03:54:23.726Z,58.10
2019-05-25T03:56:52.157Z,58.30
2019-05-25T03:59:20.579Z,58.50
2019-05-25T04:01:48.997Z,58.80
2019-05-25T04:04:17.419Z,58.90
2019-05-25T04:06:46.153Z,59.20
2019-05-25T04:09:14.859Z,59.50
2019-05-25T04:11:43.266Z,59.60
2019-05-25T04:14:11.688Z,59.80
2019-05-25T04:16:40.100Z,59.90
2019-05-25T04:19:08.523Z,60.00
2019-05-25T04:21:37.007Z,60.00
2019-05-25T04:24:05.701Z,60.40
2019-05-25T04:26:34.105Z,60.40
2019-05-25T04:29:02.525Z,60.70
2019-05-25T04:31:30.990Z,61.00
2019-05-25T04:33:59.761Z,61.30
2019-05-25T04:36:28.165Z,61.30
2019-05-25T04:38:56.594Z,61.60
2019-05-25T04:41:25.018Z,61.70
2019-05-25T04:43:53.414Z,61.90
2019-05-25T04:46:21.830Z,62.00
2019-05-25T04:48:51.091Z,62.10
2019-05-25T04:51:19.564Z,62.20
2019-05-25T04:53:47.959Z,62.40
2019-05-25T04:56:16.369Z,62.30
2019-05-25T04:58:45.090Z,62.50
2019-05-25T05:01:14.105Z,63.60
2019-05-25T05:03:42.535Z,63.10
2019-05-25T05:06:10.943Z,63.20
2019-05-25T05:08:39.343Z,63.50
2019-05-25T05:11:07.753Z,63.50
2019-05-25T05:13:36.165Z,63.30
2019-05-25T05:16:04.746Z,63.20
2019-05-25T05:18:33.143Z,62.80
2019-05-25T05:21:01.713Z,62.40
2019-05-25T05:23:30.122Z,61.80
2019-05-25T05:25:58.517Z,61.30
2019-05-25T05:28:26.935Z,60.90
2019-05-25T05:30:55.607Z,60.70
2019-05-25T05:33:24.025Z,60.90
2019-05-25T05:35:53.065Z,60.80
2019-05-25T05:38:21.982Z,60.40
2019-05-25T05:40:50.916Z,59.80
2019-05-25T05:43:20.187Z,59.40
2019-05-25T05:45:51.018Z,59.00
2019-05-25T05:48:22.510Z,58.70
2019-05-25T05:50:52.819Z,58.40
2019-05-25T05:53:22.961Z,58.30
2019-05-25T05:55:51.680Z,57.90
2019-05-25T05:58:20.114Z,57.40
2019-05-25T06:00:48.509Z,56.90
2019-05-25T06:03:16.937Z,56.20
2019-05-25T06:05:45.330Z,55.70
2019-05-25T06:08:13.730Z,55.30
2019-05-25T06:10:42.129Z,54.90
2019-05-25T06:13:10.558Z,54.50
2019-05-25T06:15:38.969Z,54.70
2019-05-25T06:18:07.698Z,54.20
2019-05-25T06:20:36.102Z,54.50
2019-05-25T06:23:07.849Z,54.50
2019-05-25T06:25:34.659Z,53.90
2019-05-25T06:28:03.155Z,53.40
2019-05-25T06:30:31.577Z,52.60
2019-05-25T06:32:59.981Z,52.10
2019-05-25T06:35:28.404Z,51.30
2019-05-25T06:37:57.150Z,51.10
2019-05-25T06:40:25.553Z,50.70
2019-05-25T06:42:53.959Z,50.10
2019-05-25T06:45:22.381Z,49.50
2019-05-25T06:47:50.893Z,49.10
2019-05-25T06:50:19.656Z,48.00
2019-05-25T06:52:48.062Z,47.50
2019-05-25T06:55:16.489Z,47.30
2019-05-25T06:57:45.123Z,47.30
2019-05-25T07:00:13.821Z,46.90
2019-05-25T07:02:42.225Z,46.50
2019-05-25T07:05:10.704Z,46.30
2019-05-25T07:07:39.130Z,45.50
2019-05-25T07:10:07.968Z,44.80
2019-05-25T07:12:36.404Z,44.70
2019-05-25T07:15:09.121Z,44.60
2019-05-25T07:17:37.652Z,44.90
2019-05-25T07:20:07.764Z,44.70
2019-05-25T07:22:36.157Z,44.30
2019-05-25T07:25:06.480Z,43.50
2019-05-25T07:27:34.947Z,43.30
2019-05-25T07:30:04.625Z,42.90
2019-05-25T07:32:33.587Z,42.10
2019-05-25T07:35:02.018Z,40.80
2019-05-25T07:37:30.409Z,40.00
2019-05-25T07:39:58.815Z,39.20
2019-05-25T07:42:27.214Z,38.60
2019-05-25T07:44:55.634Z,37.90
2019-05-25T07:47:24.429Z,38.00
2019-05-25T07:49:52.842Z,38.10
2019-05-25T07:52:21.250Z,38.70
2019-05-25T07:54:49.688Z,39.10
2019-05-25T07:57:18.095Z,39.20
2019-05-25T07:59:46.768Z,39.00
2019-05-25T08:02:15.173Z,38.60
2019-05-25T08:04:43.585Z,38.50
2019-05-25T08:07:12.087Z,38.50
2019-05-25T08:09:40.518Z,38.50
2019-05-25T08:12:09.157Z,39.10
2019-05-25T08:14:37.554Z,39.60
2019-05-25T08:17:05.982Z,39.70
2019-05-25T08:19:34.629Z,39.20
2019-05-25T08:22:03.051Z,38.40
2019-05-25T08:24:31.462Z,37.50
2019-05-25T08:26:59.880Z,37.20
2019-05-25T08:29:28.522Z,37.80
2019-05-25T08:31:56.934Z,38.50
2019-05-25T08:34:25.337Z,39.00
2019-05-25T08:36:53.749Z,39.30
2019-05-25T08:39:22.227Z,39.30
2019-05-25T08:41:50.666Z,39.30
2019-05-25T08:44:19.290Z,39.30
2019-05-25T08:46:47.711Z,39.20
2019-05-25T08:49:16.112Z,39.60
2019-05-25T08:51:44.559Z,39.90
2019-05-25T08:54:12.977Z,40.30
2019-05-25T08:56:41.419Z,40.70
2019-05-25T08:59:09.823Z,40.90
2019-05-25T09:01:38.293Z,41.00
2019-05-25T09:04:06.718Z,41.60
2019-05-25T09:06:35.138Z,42.00
2019-05-25T09:09:04.605Z,41.70
2019-05-25T09:11:33.025Z,41.40
2019-05-25T09:14:01.663Z,41.20
2019-05-25T09:16:30.125Z,40.30
2019-05-25T09:18:58.566Z,39.50
2019-05-25T09:21:26.975Z,39.20
2019-05-25T09:23:55.378Z,38.70
2019-05-25T09:26:23.802Z,37.70
2019-05-25T09:29:03.933Z,37.50
2019-05-25T09:31:22.354Z,37.90
2019-05-25T09:33:50.773Z,38.60
2019-05-25T09:36:19.201Z,39.90
2019-05-25T09:38:47.625Z,39.10
2019-05-25T09:41:16.022Z,38.10
2019-05-25T09:43:44.437Z,37.80
2019-05-25T09:46:12.862Z,37.10
2019-05-25T09:48:41.265Z,36.80
2019-05-25T09:51:15.336Z,36.70
2019-05-25T09:53:39.804Z,36.70
2019-05-25T09:56:08.229Z,36.60
2019-05-25T09:58:36.640Z,36.90
2019-05-25T10:01:05.116Z,37.10
2019-05-25T10:03:33.531Z,36.90
2019-05-25T10:06:10.561Z,37.20
2019-05-25T10:08:32.322Z,37.30
2019-05-25T10:11:00.765Z,36.80
2019-05-25T10:13:29.189Z,36.50
2019-05-25T10:15:57.585Z,36.70
2019-05-25T10:18:26.272Z,37.10
2019-05-25T10:20:54.666Z,36.60
2019-05-25T10:23:23.095Z,36.50
2019-05-25T10:25:51.604Z,36.80
2019-05-25T10:28:20.015Z,37.10
2019-05-25T10:30:48.426Z,37.40
2019-05-25T10:33:16.836Z,37.70
2019-05-25T10:35:45.281Z,38.30
2019-05-25T10:38:13.695Z,38.50
2019-05-25T10:40:42.129Z,38.60
2019-05-25T10:43:10.599Z,38.50
2019-05-25T10:45:39.602Z,38.00
2019-05-25T10:48:08.076Z,37.60
2019-05-25T10:50:36.570Z,37.30
2019-05-25T10:53:04.973Z,37.20
2019-05-25T10:55:33.399Z,36.90
2019-05-25T10:58:02.056Z,36.60
2019-05-25T11:00:30.539Z,36.60
2019-05-25T11:02:58.960Z,36.60
2019-05-25T11:05:27.391Z,36.00
2019-05-25T11:07:55.809Z,35.20
2019-05-25T11:10:24.810Z,35.40
2019-05-25T11:12:53.229Z,35.80
2019-05-25T11:15:21.639Z,35.70
2019-05-25T11:17:50.122Z,35.70
2019-05-25T11:20:18.789Z,35.20
2019-05-25T11:22:47.254Z,35.60
2019-05-25T11:25:17.022Z,36.10
2019-05-25T11:27:45.422Z,36.10
2019-05-25T11:30:14.183Z,36.10
2019-05-25T11:32:43.152Z,36.30
2019-05-25T11:35:12.609Z,35.50
2019-05-25T11:37:41.245Z,35.20
2019-05-25T11:40:10.481Z,35.30
2019-05-25T11:42:38.873Z,35.20
2019-05-25T11:45:08.238Z,35.40
2019-05-25T11:47:36.692Z,35.60
2019-05-25T11:50:06.979Z,35.50
2019-05-25T11:52:35.392Z,35.60
2019-05-25T11:55:06.046Z,36.00
2019-05-25T11:57:35.273Z,35.90
2019-05-25T12:00:07.113Z,36.50
2019-05-25T12:02:35.510Z,37.20
2019-05-25T12:05:08.661Z,36.50
2019-05-25T12:07:37.082Z,36.30
2019-05-25T12:10:07.307Z,36.30
2019-05-25T12:12:36.013Z,36.50
2019-05-25T12:15:07.725Z,36.10
2019-05-25T12:17:36.150Z,35.80
2019-05-25T12:20:05.684Z,35.70
2019-05-25T12:22:34.134Z,35.90
2019-05-25T12:25:02.918Z,36.10
2019-05-25T12:27:31.326Z,36.40
2019-05-25T12:29:59.747Z,36.90
2019-05-25T12:32:28.173Z,37.30
2019-05-25T12:34:56.589Z,37.40
2019-05-25T12:37:24.993Z,37.20
2019-05-25T12:39:53.487Z,36.80
2019-05-25T12:42:21.882Z,36.60
2019-05-25T12:44:50.287Z,36.60
2019-05-25T12:47:18.781Z,36.60
2019-05-25T12:49:51.204Z,36.70
2019-05-25T12:52:17.338Z,36.80
2019-05-25T12:54:45.732Z,37.50
2019-05-25T12:57:14.145Z,37.10
2019-05-25T13:00:14.754Z,37.20
2019-05-25T13:02:32.049Z,37.30
2019-05-25T13:05:00.588Z,37.40
2019-05-25T13:07:29.066Z,37.30
2019-05-25T13:09:57.486Z,37.90
2019-05-25T13:12:25.885Z,37.30
2019-05-25T13:14:54.322Z,37.20
2019-05-25T13:17:22.744Z,37.50
2019-05-25T13:19:51.144Z,37.50
2019-05-25T13:22:19.560Z,36.60
2019-05-25T13:24:48.012Z,36.60
2019-05-25T13:27:16.725Z,36.50
2019-05-25T13:29:45.131Z,36.10
2019-05-25T13:32:13.533Z,36.30
2019-05-25T13:34:43.585Z,36.00
2019-05-25T13:37:12.529Z,36.40
2019-05-25T13:39:41.261Z,36.60
2019-05-25T13:42:09.741Z,36.60
2019-05-25T13:44:38.149Z,36.90
2019-05-25T13:47:06.559Z,36.90
2019-05-25T13:49:34.949Z,36.80
2019-05-25T13:52:03.392Z,37.60
2019-05-25T13:54:31.854Z,36.40
2019-05-25T13:57:00.431Z,36.10
2019-05-25T13:59:28.878Z,36.10
2019-05-25T14:01:57.321Z,35.80
2019-05-25T14:04:25.799Z,35.90
2019-05-25T14:06:54.207Z,36.10
2019-05-25T14:09:22.622Z,36.20
2019-05-25T14:11:51.049Z,36.40
2019-05-25T14:14:19.437Z,36.30
2019-05-25T14:16:47.868Z,36.20
2019-05-25T14:19:16.368Z,36.40
2019-05-25T14:21:44.825Z,36.70
2019-05-25T14:24:13.528Z,36.60
2019-05-25T14:26:41.950Z,36.50
2019-05-25T14:29:10.345Z,36.30
2019-05-25T14:31:45.685Z,36.50
2019-05-25T14:34:08.889Z,36.70
2019-05-25T14:36:37.295Z,37.40
2019-05-25T14:39:08.237Z,36.70
2019-05-25T14:41:37.754Z,36.60
2019-05-25T14:44:06.163Z,36.40
2019-05-25T14:46:34.553Z,36.40
2019-05-25T14:49:02.958Z,36.20
2019-05-25T14:51:31.382Z,36.10
2019-05-25T14:53:59.924Z,36.20
2019-05-25T14:56:28.593Z,36.50
2019-05-25T14:58:56.977Z,36.80
2019-05-25T15:01:25.377Z,36.80
2019-05-25T15:03:53.794Z,36.70
2019-05-25T15:06:22.205Z,36.50
2019-05-25T15:08:50.631Z,36.70
2019-05-25T15:11:19.351Z,36.50
2019-05-25T15:13:47.761Z,36.60
2019-05-25T15:16:16.166Z,37.50
2019-05-25T15:18:44.910Z,36.60
2019-05-25T15:21:13.311Z,36.60
2019-05-25T15:23:41.717Z,36.80
2019-05-25T15:26:10.115Z,36.70
2019-05-25T15:28:38.548Z,36.80
2019-05-25T15:31:06.959Z,37.10
2019-05-25T15:33:35.420Z,37.20
2019-05-25T15:36:03.820Z,37.40
2019-05-25T15:38:32.238Z,37.50
2019-05-25T15:41:00.725Z,37.80
2019-05-25T15:43:29.178Z,38.10
2019-05-25T15:45:57.572Z,38.10
2019-05-25T15:48:26.475Z,38.40
2019-05-25T15:50:55.076Z,38.30
2019-05-25T15:53:23.479Z,38.40
2019-05-25T15:55:51.888Z,38.20
2019-05-25T15:58:20.299Z,38.20
2019-05-25T16:00:50.272Z,38.50
2019-05-25T16:03:20.108Z,38.50
2019-05-25T16:05:49.555Z,38.80
2019-05-25T16:08:21.015Z,39.00
2019-05-25T16:10:49.799Z,39.20
2019-05-25T16:13:18.220Z,39.40
2019-05-25T16:15:46.661Z,39.60
2019-05-25T16:18:15.325Z,39.90
2019-05-25T16:20:43.905Z,40.20
2019-05-25T16:23:12.361Z,40.30
2019-05-25T16:25:40.793Z,40.60
2019-05-25T16:28:09.283Z,40.80
2019-05-25T16:30:37.704Z,41.00
2019-05-25T16:33:14.553Z,41.60
2019-05-25T16:35:36.311Z,41.20
2019-05-25T16:38:04.870Z,41.20
2019-05-25T16:40:33.503Z,41.30
2019-05-25T16:43:02.028Z,41.40
2019-05-25T16:45:30.546Z,41.60
2019-05-25T16:47:58.999Z,41.70
2019-05-25T16:50:27.436Z,41.80
2019-05-25T16:52:56.169Z,41.90
2019-05-25T16:55:24.614Z,42.00
2019-05-25T16:57:53.062Z,42.10
2019-05-25T17:00:29.108Z,42.20
2019-05-25T17:02:58.474Z,42.30
2019-05-25T17:05:27.738Z,42.40
2019-05-25T17:07:56.209Z,42.60
2019-05-25T17:10:24.805Z,42.70
2019-05-25T17:12:53.244Z,42.80
2019-05-25T17:15:21.666Z,42.90
2019-05-25T17:17:50.058Z,42.80
2019-05-25T17:20:18.802Z,42.90
2019-05-25T17:22:47.201Z,43.20
2019-05-25T17:25:15.969Z,43.20
2019-05-25T17:27:44.449Z,43.20
2019-05-25T17:30:13.787Z,43.10
2019-05-25T17:32:42.220Z,43.20
2019-05-25T17:35:11.054Z,43.20
2019-05-25T17:37:39.470Z,43.20
2019-05-25T17:40:08.209Z,43.40
2019-05-25T17:42:36.812Z,43.60
2019-05-25T17:45:07.120Z,44.60
2019-05-25T17:47:35.689Z,43.90
2019-05-25T17:50:05.729Z,44.00
2019-05-25T17:52:34.138Z,44.10
2019-05-25T17:55:02.572Z,44.30
2019-05-25T17:57:31.070Z,44.30
2019-05-25T17:59:59.795Z,44.50
2019-05-25T18:02:28.461Z,44.60
2019-05-25T18:04:56.846Z,44.70
2019-05-25T18:07:25.285Z,44.80
2019-05-25T18:09:53.699Z,44.80
2019-05-25T18:12:22.110Z,45.00
2019-05-25T18:14:50.504Z,45.10
2019-05-25T18:17:18.991Z,45.10
2019-05-25T18:19:47.799Z,45.20
2019-05-25T18:22:16.207Z,45.40
2019-05-25T18:24:44.606Z,45.50
2019-05-25T18:27:13.352Z,45.50
2019-05-25T18:29:41.763Z,45.60
2019-05-25T18:32:10.170Z,45.70
2019-05-25T18:34:38.568Z,45.70
2019-05-25T18:37:07.681Z,45.70
2019-05-25T18:39:36.108Z,45.90
2019-05-25T18:42:04.657Z,45.80
2019-05-25T18:44:33.048Z,45.80
2019-05-25T18:47:01.459Z,45.80
2019-05-25T18:49:29.864Z,45.90
2019-05-25T18:51:58.269Z,46.00
2019-05-25T18:54:26.667Z,46.10
2019-05-25T18:56:55.069Z,46.10
2019-05-25T18:59:23.475Z,46.20
2019-05-25T19:01:51.887Z,46.30
2019-05-25T19:04:20.312Z,46.40
2019-05-25T19:06:48.740Z,46.30
2019-05-25T19:09:17.156Z,46.40
2019-05-25T19:11:45.546Z,46.50
2019-05-25T19:14:13.969Z,46.60
2019-05-25T19:16:42.439Z,46.70
2019-05-25T19:19:11.126Z,46.80
2019-05-25T19:21:39.815Z,46.70
2019-05-25T19:24:08.217Z,46.70
2019-05-25T19:26:36.613Z,46.80
2019-05-25T19:29:05.807Z,46.80
2019-05-25T19:31:34.453Z,46.80
2019-05-25T19:34:02.934Z,46.90
2019-05-25T19:36:31.324Z,47.00
2019-05-25T19:38:59.737Z,47.00
2019-05-25T19:41:28.140Z,47.10
2019-05-25T19:43:56.549Z,47.20
2019-05-25T19:46:24.942Z,47.30
2019-05-25T19:48:53.346Z,47.40
2019-05-25T19:51:21.745Z,47.60
2019-05-25T19:53:50.157Z,47.70
2019-05-25T19:56:18.558Z,47.80
2019-05-25T19:58:47.027Z,47.90
2019-05-25T20:01:15.442Z,48.10
2019-05-25T20:03:43.913Z,48.10
2019-05-25T20:06:12.367Z,48.30
2019-05-25T20:08:40.782Z,49.10
2019-05-25T20:11:09.218Z,48.50
2019-05-25T20:13:37.623Z,48.60
2019-05-25T20:16:06.029Z,48.80
2019-05-25T20:18:34.458Z,48.90
2019-05-25T20:21:02.851Z,49.10
2019-05-25T20:23:31.263Z,49.30
2019-05-25T20:25:59.687Z,49.40
2019-05-25T20:28:28.090Z,49.60
2019-05-25T20:30:56.510Z,49.80
2019-05-25T20:33:27.998Z,49.90
2019-05-25T20:35:55.345Z,49.80
2019-05-25T20:38:23.750Z,50.30
2019-05-25T20:40:52.169Z,50.40
2019-05-25T20:43:20.869Z,50.60
2019-05-25T20:45:49.279Z,50.80
2019-05-25T20:48:17.686Z,51.00
2019-05-25T20:50:46.097Z,51.00
2019-05-25T20:53:14.496Z,51.20
2019-05-25T20:55:43.573Z,51.40
2019-05-25T20:58:12.002Z,51.50
2019-05-25T21:00:41.276Z,52.40
2019-05-25T21:03:09.685Z,52.00
2019-05-25T21:05:49.506Z,52.20
2019-05-25T21:08:08.331Z,52.20
2019-05-25T21:10:36.753Z,52.30
2019-05-25T21:13:05.181Z,52.50
2019-05-25T21:15:33.594Z,52.60
2019-05-25T21:18:01.997Z,52.70
2019-05-25T21:20:30.406Z,52.70
2019-05-25T21:22:58.802Z,52.90
2019-05-25T21:25:27.207Z,52.90
2019-05-25T21:27:55.634Z,53.10
2019-05-25T21:30:24.039Z,53.30
2019-05-25T21:32:52.441Z,53.40
2019-05-25T21:35:20.936Z,53.50
2019-05-25T21:37:49.344Z,53.40
2019-05-25T21:40:17.794Z,53.50
2019-05-25T21:42:46.189Z,53.60
2019-05-25T21:45:14.929Z,53.80
2019-05-25T21:47:43.318Z,54.10
2019-05-25T21:50:12.967Z,54.40
2019-05-25T21:52:41.389Z,54.40
2019-05-25T21:55:09.865Z,54.60
2019-05-25T21:57:38.291Z,54.90
2019-05-25T22:00:12.437Z,55.10
2019-05-25T22:02:40.827Z,55.20
2019-05-25T22:05:09.876Z,55.40
2019-05-25T22:07:38.286Z,56.50
2019-05-25T22:10:06.953Z,56.20
2019-05-25T22:12:35.382Z,56.50
2019-05-25T22:15:07.482Z,56.50
2019-05-25T22:17:35.884Z,56.80
2019-05-25T22:20:07.418Z,57.00
2019-05-25T22:22:35.918Z,57.20
2019-05-25T22:25:06.194Z,57.40
2019-05-25T22:27:34.631Z,57.50
2019-05-25T22:30:04.649Z,57.60
2019-05-25T22:32:33.078Z,57.80
2019-05-25T22:35:01.544Z,57.90
2019-05-25T22:37:29.978Z,58.50
2019-05-25T22:39:58.374Z,58.00
2019-05-25T22:42:26.781Z,58.00
2019-05-25T22:44:55.187Z,58.10
2019-05-25T22:47:23.599Z,58.20
2019-05-25T22:49:51.993Z,58.30
2019-05-25T22:52:20.411Z,58.50
2019-05-25T22:54:48.805Z,58.70
2019-05-25T22:57:17.233Z,58.80
2019-05-25T22:59:45.923Z,58.90
2019-05-25T23:02:14.349Z,59.20
2019-05-25T23:04:42.741Z,59.50
2019-05-25T23:07:11.689Z,59.40
2019-05-25T23:09:40.100Z,59.70
2019-05-25T23:12:08.693Z,59.80
2019-05-25T23:14:37.106Z,60.00
2019-05-25T23:17:05.522Z,60.30
2019-05-25T23:19:33.922Z,60.40
2019-05-25T23:22:02.338Z,60.70
2019-05-25T23:24:30.764Z,60.90
2019-05-25T23:26:59.166Z,61.10
2019-05-25T23:29:27.589Z,61.30
2019-05-25T23:31:56.010Z,61.50
2019-05-25T23:34:24.394Z,61.80
2019-05-25T23:36:52.833Z,61.90
2019-05-25T23:39:21.230Z,62.10
2019-05-25T23:41:49.776Z,62.30
2019-05-25T23:44:18.179Z,62.50
2019-05-25T23:46:46.581Z,62.60
2019-05-25T23:49:14.990Z,62.70
2019-05-25T23:51:43.394Z,62.70
2019-05-25T23:54:12.725Z,62.80
2019-05-25T23:56:41.131Z,62.90
2019-05-25T23:59:09.545Z,62.70
